Strona główna
METAR-TAF:

METAR-TAF

Lotnisko :

Port lotniczy Maputo

Maputo, Mozambik

Szerokość geograficzna: 25-55S, Długość geograficzna: 032-34E, wysokość: 39 m

Aktualna obserwacja pogody

Raport powstał 53 minut temu, godzina 19:00 UTC
Wiatr 3 kt od wschód
Temperatura 20°C
Wilgotność 88%
Ciśnienie 1023 hPa
Widzialność 10 km lub więcej
Brak chmur poniżej 1500 m i brak chmur cumulonimbus

METAR: FQMA 251900Z 09003KT CAVOK 20/18 Q1023 NOSIG

czas: 21:53 (19:53 UTC)

Prognoza

Raport powstał 3 godziny i 53 minut temu, godzina 16:00 UTC
Prognoza ważna od 25 godzina 18 UTC do 26 godzina 24 UTC
Wiatr 8 kt od wschód
Widzialność 10 km lub więcej
Brak chmur poniżej 1500 m i brak chmur cumulonimbus
Stopniowe zmiany
od 26 godzina 03 UTC do 26 godzina 05 UTC
Wiatr 12 kt od wschód
Widzialność 10 km lub więcej
Mało chmury na wysokości 2000 ft
Stopniowe zmiany
od 26 godzina 18 UTC do 26 godzina 20 UTC
Wiatr 10 kt od północny zachód

TAF: FQMA 251600Z 2518/2624 08008KT CAVOK BECMG 2603/2605 09012KT 9999 FEW020 BECMG 2618/2620 32010KT TX28/2613ZTN17/2603Z

Obserwacja i prognoza pogody dla ponad 4000 lotnisk (raport METAR i TAF).

Dostępne stacje oznaczono żółtymi i czerwonymi punktami na mapie.

Najedź kursorem aby zobaczyć nazwę stacji.

Kliknij aby zobaczyć obserwacje i prognozy pogody.

Aby zmienić mapę: kliknij na zielony przycisk z czarnym krzyżykiem, aby powiększyć; na zielony przycisk z myślnikiem, aby pomniejszyć; na zielone strzałki, aby przejść do map sąsiednich.


METAR-TAF: